Parsons, West Virginia
Current Conditions -  °F | °C
As of 3:51 AM on Friday 31 Oct 2014 (Local Time) from KEKN Reporting Station
Overcast Overcast  
Wind Chill: 27°   Ceiling: 3600
Heat Index: 32°   Visibility: 7mi
Dew Point: 32°   Wind: 5mph
Humidity: 100%   Direction: 260°W
Pressure: 30.01"   Gusts: NA
Location:  39.1°N, 79.68°W
Report Text: KEKN 310751Z AUTO 26004KT 7SM OVC036 00/00 A3001 RMK AO2 SLP180 I1000 T00000000 TSNO
Loading
Personal Weather Stations






























Interactive Weather Map
Tropical Storm Tracking
New forecast layout! Learn more

10-Day Weather Forecast

Advertisements
Track Severe Weather on mobile